createdAt,value
2024-04-07T00:00:01.505Z,113
2024-04-07T00:05:01.866Z,112
2024-04-07T00:10:02.314Z,114
2024-04-07T00:15:01.660Z,119
2024-04-07T00:20:02.064Z,120
2024-04-07T00:25:01.457Z,119
2024-04-07T00:30:01.788Z,117
2024-04-07T00:35:02.116Z,116
2024-04-07T00:40:01.494Z,119
2024-04-07T00:45:01.841Z,120
2024-04-07T00:50:02.178Z,120
2024-04-07T00:55:01.507Z,119
2024-04-07T01:00:01.843Z,119
2024-04-07T01:05:02.176Z,119
2024-04-07T01:10:01.558Z,121
2024-04-07T01:15:01.911Z,119
2024-04-07T01:20:01.390Z,118
2024-04-07T01:25:01.739Z,120
2024-04-07T01:30:02.077Z,117
2024-04-07T01:35:01.408Z,117
2024-04-07T01:40:01.808Z,116
2024-04-07T01:45:02.143Z,116
2024-04-07T01:50:01.478Z,114
2024-04-07T01:55:01.811Z,116
2024-04-07T02:00:02.158Z,115
2024-04-07T02:05:01.488Z,118
2024-04-07T02:10:01.919Z,116
2024-04-07T02:15:01.375Z,115
2024-04-07T02:20:01.800Z,117
2024-04-07T02:25:02.132Z,116
2024-04-07T02:30:01.469Z,114
2024-04-07T02:35:01.799Z,115
2024-04-07T02:40:02.181Z,114
2024-04-07T02:45:01.539Z,114
2024-04-07T02:50:01.921Z,117
2024-04-07T02:55:02.269Z,113
2024-04-07T03:00:01.620Z,111
2024-04-07T03:05:03.686Z,109
2024-04-07T03:10:01.454Z,111
2024-04-07T03:15:01.832Z,114
2024-04-07T03:20:02.321Z,114
2024-04-07T03:25:01.666Z,114
2024-04-07T03:30:01.997Z,114
2024-04-07T03:35:01.475Z,112
2024-04-07T03:40:01.848Z,111
2024-04-07T03:45:02.187Z,114
2024-04-07T03:50:01.535Z,111
2024-04-07T03:55:01.862Z,113
2024-04-07T04:00:02.214Z,112
2024-04-07T04:05:01.544Z,112
2024-04-07T04:10:01.914Z,113
2024-04-07T04:15:02.254Z,112
2024-04-07T04:20:01.664Z,113
2024-04-07T04:25:02.006Z,114
2024-04-07T04:30:02.273Z,114
2024-04-07T04:35:01.653Z,114
2024-04-07T04:40:02.015Z,112
2024-04-07T04:45:01.400Z,113
2024-04-07T04:50:01.533Z,111
2024-04-07T04:55:01.869Z,114
2024-04-07T05:00:02.222Z,114
2024-04-07T05:05:01.560Z,112
2024-04-07T05:10:01.931Z,110
2024-04-07T05:15:02.286Z,114
2024-04-07T05:20:01.781Z,116
2024-04-07T05:25:02.118Z,117
2024-04-07T05:30:01.468Z,116
2024-04-07T05:35:01.810Z,118
2024-04-07T05:40:04.014Z,116
2024-04-07T05:45:01.536Z,116
2024-04-07T05:50:01.867Z,117
2024-04-07T05:55:02.193Z,116
2024-04-07T06:00:01.574Z,116
2024-04-07T06:05:01.977Z,113
2024-04-07T06:10:01.360Z,112
2024-04-07T06:15:01.686Z,113
2024-04-07T06:20:02.164Z,112
2024-04-07T06:25:01.669Z,113
2024-04-07T06:30:02.015Z,114
2024-04-07T06:35:01.404Z,115
2024-04-07T06:40:01.854Z,112
2024-04-07T06:45:02.237Z,115
2024-04-07T06:50:01.579Z,114
2024-04-07T06:55:01.913Z,117
2024-04-07T07:00:02.308Z,115
2024-04-07T07:05:01.714Z,117
2024-04-07T07:10:02.165Z,116
2024-04-07T07:15:01.564Z,114
2024-04-07T07:20:02.053Z,116
2024-04-07T07:25:01.402Z,110
2024-04-07T07:30:01.763Z,112
2024-04-07T07:35:02.135Z,112
2024-04-07T07:40:01.644Z,115
2024-04-07T07:45:02.001Z,116
2024-04-07T07:50:01.355Z,116
2024-04-07T07:55:01.705Z,117
2024-04-07T08:00:14.407Z,117
2024-04-07T08:05:01.515Z,115
2024-04-07T08:10:01.927Z,118
2024-04-07T08:15:02.258Z,114
2024-04-07T08:20:01.870Z,116
2024-04-07T08:25:01.320Z,116
2024-04-07T08:30:01.653Z,115
2024-04-07T08:35:02.058Z,115
2024-04-07T08:40:01.497Z,116
2024-04-07T08:45:01.852Z,118
2024-04-07T08:50:02.241Z,118
2024-04-07T08:55:01.681Z,118
2024-04-07T09:00:02.042Z,120
2024-04-07T09:05:01.538Z,115
2024-04-07T09:10:01.945Z,115
2024-04-07T09:15:01.286Z,118
2024-04-07T09:20:01.849Z,117
2024-04-07T09:25:01.270Z,116
2024-04-07T09:30:01.603Z,115
2024-04-07T09:35:01.985Z,115
2024-04-07T09:40:01.376Z,116
2024-04-07T09:45:01.727Z,117
2024-04-07T09:50:02.114Z,117
2024-04-07T09:55:01.507Z,114
2024-04-07T10:00:01.846Z,114
2024-04-07T10:05:02.204Z,116
2024-04-07T10:10:01.643Z,117
2024-04-07T10:15:02.038Z,116
2024-04-07T10:20:02.070Z,118
2024-04-07T10:25:01.422Z,116
2024-04-07T10:30:01.767Z,118
2024-04-07T10:35:02.154Z,115
2024-04-07T10:40:01.529Z,116
2024-04-07T10:45:01.871Z,117
2024-04-07T10:50:02.231Z,118
2024-04-07T10:55:01.629Z,116
2024-04-07T11:00:01.978Z,117
2024-04-07T11:05:01.354Z,116
2024-04-07T11:10:01.760Z,117
2024-04-07T11:15:02.095Z,116
2024-04-07T11:20:01.543Z,115
2024-04-07T11:25:01.912Z,116
2024-04-07T11:30:02.265Z,115
2024-04-07T11:35:01.657Z,115
2024-04-07T11:40:02.033Z,116
2024-04-07T11:45:01.383Z,118
2024-04-07T11:50:01.764Z,115
2024-04-07T11:55:02.122Z,116
2024-04-07T12:00:01.471Z,116
2024-04-07T12:05:03.132Z,118
2024-04-07T12:10:02.204Z,116
2024-04-07T12:15:01.628Z,118
2024-04-07T12:20:02.012Z,115
2024-04-07T12:25:01.414Z,117
2024-04-07T12:30:01.786Z,120
2024-04-07T12:35:02.229Z,118
2024-04-07T12:40:01.686Z,118
2024-04-07T12:45:02.050Z,117
2024-04-07T12:50:01.386Z,117
2024-04-07T12:55:01.722Z,117
2024-04-07T13:00:02.110Z,116
2024-04-07T13:05:01.467Z,113
2024-04-07T13:10:01.913Z,116
2024-04-07T13:15:07.774Z,116
2024-04-07T13:20:01.675Z,115
2024-04-07T13:25:01.997Z,111
2024-04-07T13:30:01.343Z,114
2024-04-07T13:35:01.763Z,112
2024-04-07T13:40:02.154Z,113
2024-04-07T13:45:01.507Z,109
2024-04-07T13:50:01.866Z,110
2024-04-07T13:55:02.237Z,110
2024-04-07T14:00:01.661Z,112
2024-04-07T14:05:02.016Z,116
2024-04-07T14:10:01.395Z,112
2024-04-07T14:15:01.775Z,113
2024-04-07T14:20:02.206Z,113
2024-04-07T14:25:01.532Z,112
2024-04-07T14:30:02.045Z,117
2024-04-07T14:35:01.418Z,119
2024-04-07T14:40:01.828Z,117
2024-04-07T14:45:02.187Z,115
2024-04-07T14:50:01.531Z,117
2024-04-07T14:55:01.857Z,115
2024-04-07T15:00:02.230Z,114
2024-04-07T15:05:01.606Z,115
2024-04-07T15:10:01.982Z,114
2024-04-07T15:15:01.333Z,115
2024-04-07T15:20:01.794Z,113
2024-04-07T15:25:02.210Z,111
2024-04-07T15:30:01.605Z,119
2024-04-07T15:35:01.954Z,118
2024-04-07T15:40:01.354Z,118
2024-04-07T15:45:01.735Z,114
2024-04-07T15:50:02.126Z,117
2024-04-07T15:55:01.499Z,119
2024-04-07T16:00:01.840Z,116
2024-04-07T16:05:02.240Z,112
2024-04-07T16:10:01.618Z,121
2024-04-07T16:15:01.992Z,119
2024-04-07T16:20:01.409Z,117
2024-04-07T16:25:01.749Z,124
2024-04-07T16:30:02.087Z,119
2024-04-07T16:35:01.421Z,119
2024-04-07T16:40:01.794Z,122
2024-04-07T16:45:02.164Z,120
2024-04-07T16:50:01.523Z,116
2024-04-07T16:55:01.872Z,119
2024-04-07T17:00:02.239Z,117
2024-04-07T17:05:01.579Z,117
2024-04-07T17:10:02.063Z,118
2024-04-07T17:15:01.432Z,118
2024-04-07T17:20:01.798Z,121
2024-04-07T17:25:02.176Z,120
2024-04-07T17:30:01.521Z,119
2024-04-07T17:35:01.880Z,120
2024-04-07T17:40:02.255Z,120
2024-04-07T17:45:01.635Z,120
2024-04-07T17:50:01.969Z,122
2024-04-07T17:55:01.301Z,119
2024-04-07T18:00:01.695Z,115
2024-04-07T18:05:02.047Z,117
2024-04-07T18:10:01.470Z,113
2024-04-07T18:15:01.846Z,108
2024-04-07T18:20:02.353Z,106
2024-04-07T18:25:01.711Z,113
2024-04-07T18:30:02.070Z,112
2024-04-07T18:35:01.416Z,114
2024-04-07T18:40:01.789Z,115
2024-04-07T18:45:02.137Z,116
2024-04-07T18:50:01.465Z,115
2024-04-07T18:55:01.798Z,115
2024-04-07T19:00:02.598Z,116
2024-04-07T19:05:02.096Z,113
2024-04-07T19:10:01.470Z,114
2024-04-07T19:15:01.861Z,115
2024-04-07T19:20:02.274Z,116
2024-04-07T19:25:01.648Z,114
2024-04-07T19:30:01.982Z,113
2024-04-07T19:35:01.325Z,115
2024-04-07T19:40:01.724Z,111
2024-04-07T19:45:02.073Z,115
2024-04-07T19:50:01.462Z,112
2024-04-07T19:55:01.808Z,115
2024-04-07T20:00:02.162Z,113
2024-04-07T20:05:01.525Z,113
2024-04-07T20:10:01.967Z,113
2024-04-07T20:15:01.331Z,113
2024-04-07T20:20:01.741Z,113
2024-04-07T20:25:02.099Z,113
2024-04-07T20:30:01.495Z,116
2024-04-07T20:35:01.859Z,109
2024-04-07T20:40:02.353Z,108
2024-04-07T20:45:01.728Z,108
2024-04-07T20:50:02.060Z,107
2024-04-07T20:55:01.423Z,105
2024-04-07T21:00:01.857Z,107
2024-04-07T21:05:02.253Z,115
2024-04-07T21:10:01.699Z,117
2024-04-07T21:15:02.062Z,117
2024-04-07T21:20:01.448Z,115
2024-04-07T21:25:01.820Z,113
2024-04-07T21:30:02.155Z,115
2024-04-07T21:35:01.488Z,116
2024-04-07T21:40:01.859Z,121
2024-04-07T21:45:02.203Z,126
2024-04-07T21:50:01.584Z,128
2024-04-07T21:55:01.946Z,129
2024-04-07T22:00:01.400Z,129
2024-04-07T22:05:02.294Z,127
2024-04-07T22:10:01.667Z,129
2024-04-07T22:15:02.101Z,129
2024-04-07T22:20:02.124Z,128
2024-04-07T22:25:01.512Z,130
2024-04-07T22:30:01.920Z,127
2024-04-07T22:35:01.310Z,127
2024-04-07T22:40:01.767Z,129
2024-04-07T22:45:02.127Z,127
2024-04-07T22:50:01.462Z,126
2024-04-07T22:55:01.881Z,126
2024-04-07T23:00:02.249Z,126
2024-04-07T23:05:01.652Z,125
2024-04-07T23:10:02.163Z,123
2024-04-07T23:15:01.498Z,124
2024-04-07T23:20:01.921Z,126
2024-04-07T23:25:02.257Z,123
2024-04-07T23:30:01.620Z,121
2024-04-07T23:35:01.948Z,123
2024-04-07T23:40:01.327Z,123
2024-04-07T23:45:01.725Z,122
2024-04-07T23:50:02.081Z,121
2024-04-07T23:55:01.426Z,119
